sensor_id;sensor_type;location;lat;lon;timestamp;pressure;altitude;pressure_sealevel;temperature;humidity
1726;BME280;41776;48.260;8.928;2023-05-29T00:02:04;52046.34;;;-145.69;100.00
1726;BME280;41776;48.260;8.928;2023-05-29T00:04:31;52080.00;;;-145.69;100.00
1726;BME280;41776;48.260;8.928;2023-05-29T00:06:57;52080.00;;;-145.69;100.00
1726;BME280;41776;48.260;8.928;2023-05-29T00:09:24;52068.13;;;-145.69;100.00
1726;BME280;41776;48.260;8.928;2023-05-29T00:11:51;52052.28;;;-145.69;100.00
1726;BME280;41776;48.260;8.928;2023-05-29T00:14:18;52064.16;;;-145.69;100.00
1726;BME280;41776;48.260;8.928;2023-05-29T00:16:46;52076.03;;;-145.69;100.00
1726;BME280;41776;48.260;8.928;2023-05-29T00:19:14;52078.03;;;-145.69;100.00
1726;BME280;41776;48.260;8.928;2023-05-29T00:21:42;52068.13;;;-145.69;100.00
1726;BME280;41776;48.260;8.928;2023-05-29T00:24:09;52074.06;;;-145.69;100.00
1726;BME280;41776;48.260;8.928;2023-05-29T00:26:35;52097.84;;;-145.69;100.00
1726;BME280;41776;48.260;8.928;2023-05-29T00:29:02;52052.28;;;-145.69;100.00
1726;BME280;41776;48.260;8.928;2023-05-29T00:31:31;52085.94;;;-145.69;100.00
1726;BME280;41776;48.260;8.928;2023-05-29T00:34:00;52052.28;;;-145.69;100.00
1726;BME280;41776;48.260;8.928;2023-05-29T00:36:26;52083.97;;;-145.69;100.00
1726;BME280;41776;48.260;8.928;2023-05-29T00:38:54;52072.09;;;-145.69;100.00
1726;BME280;41776;48.260;8.928;2023-05-29T00:41:20;52087.94;;;-145.69;100.00
1726;BME280;41776;48.260;8.928;2023-05-29T00:43:47;52068.13;;;-145.69;100.00
1726;BME280;41776;48.260;8.928;2023-05-29T00:46:16;52085.94;;;-145.69;100.00
1726;BME280;41776;48.260;8.928;2023-05-29T00:48:42;52091.88;;;-145.69;100.00
1726;BME280;41776;48.260;8.928;2023-05-29T00:51:12;52097.84;;;-145.69;100.00
1726;BME280;41776;48.260;8.928;2023-05-29T00:53:40;52054.25;;;-145.69;100.00
1726;BME280;41776;48.260;8.928;2023-05-29T00:56:09;52089.91;;;-145.69;100.00
1726;BME280;41776;48.260;8.928;2023-05-29T00:58:36;52064.16;;;-145.69;100.00
1726;BME280;41776;48.260;8.928;2023-05-29T01:01:04;52072.09;;;-145.69;100.00
1726;BME280;41776;48.260;8.928;2023-05-29T01:03:31;52046.34;;;-145.69;100.00
1726;BME280;41776;48.260;8.928;2023-05-29T01:05:58;52078.03;;;-145.69;100.00
1726;BME280;41776;48.260;8.928;2023-05-29T01:08:27;52076.03;;;-145.69;100.00
1726;BME280;41776;48.260;8.928;2023-05-29T01:10:59;52072.09;;;-145.69;100.00
1726;BME280;41776;48.260;8.928;2023-05-29T01:13:30;52064.16;;;-145.69;100.00
1726;BME280;41776;48.260;8.928;2023-05-29T01:16:03;52066.16;;;-145.69;100.00
1726;BME280;41776;48.260;8.928;2023-05-29T01:18:43;52101.78;;;-145.69;100.00
1726;BME280;41776;48.260;8.928;2023-05-29T01:21:22;52062.19;;;-145.69;100.00
1726;BME280;41776;48.260;8.928;2023-05-29T01:24:13;52103.78;;;-145.69;100.00
1726;BME280;41776;48.260;8.928;2023-05-29T01:26:58;52076.03;;;-145.69;100.00
1726;BME280;41776;48.260;8.928;2023-05-29T01:29:29;52135.47;;;-145.69;100.00
1726;BME280;41776;48.260;8.928;2023-05-29T01:31:56;52062.19;;;-145.69;100.00
1726;BME280;41776;48.260;8.928;2023-05-29T01:34:24;52080.00;;;-145.69;100.00
1726;BME280;41776;48.260;8.928;2023-05-29T01:36:51;52048.31;;;-145.69;100.00
1726;BME280;41776;48.260;8.928;2023-05-29T01:39:17;52089.91;;;-145.69;100.00
1726;BME280;41776;48.260;8.928;2023-05-29T01:41:46;52101.78;;;-145.69;100.00
1726;BME280;41776;48.260;8.928;2023-05-29T01:44:15;52080.00;;;-145.69;100.00
1726;BME280;41776;48.260;8.928;2023-05-29T01:46:42;52052.28;;;-145.69;100.00
1726;BME280;41776;48.260;8.928;2023-05-29T01:49:11;52074.06;;;-145.69;100.00
1726;BME280;41776;48.260;8.928;2023-05-29T01:51:41;52068.13;;;-145.69;100.00
1726;BME280;41776;48.260;8.928;2023-05-29T01:54:08;52076.03;;;-145.69;100.00
1726;BME280;41776;48.260;8.928;2023-05-29T01:56:35;52099.81;;;-145.69;100.00
1726;BME280;41776;48.260;8.928;2023-05-29T01:59:03;52070.09;;;-145.69;100.00
1726;BME280;41776;48.260;8.928;2023-05-29T02:01:31;52064.16;;;-145.69;100.00
1726;BME280;41776;48.260;8.928;2023-05-29T02:03:57;52101.78;;;-145.69;100.00
1726;BME280;41776;48.260;8.928;2023-05-29T02:06:24;52062.19;;;-145.69;100.00
1726;BME280;41776;48.260;8.928;2023-05-29T02:08:51;52095.84;;;-145.69;100.00
1726;BME280;41776;48.260;8.928;2023-05-29T02:11:17;52107.72;;;-145.69;100.00
1726;BME280;41776;48.260;8.928;2023-05-29T02:13:49;52103.78;;;-145.69;100.00
1726;BME280;41776;48.260;8.928;2023-05-29T02:16:16;52091.88;;;-145.69;100.00
1726;BME280;41776;48.260;8.928;2023-05-29T02:18:46;52127.53;;;-145.69;100.00
1726;BME280;41776;48.260;8.928;2023-05-29T02:21:13;52089.91;;;-145.69;100.00
1726;BME280;41776;48.260;8.928;2023-05-29T02:23:40;52103.78;;;-145.69;100.00
1726;BME280;41776;48.260;8.928;2023-05-29T02:26:06;52064.16;;;-145.69;100.00
1726;BME280;41776;48.260;8.928;2023-05-29T02:28:33;52060.22;;;-145.69;100.00
1726;BME280;41776;48.260;8.928;2023-05-29T02:31:00;52097.84;;;-145.69;100.00
1726;BME280;41776;48.260;8.928;2023-05-29T02:33:26;52078.03;;;-145.69;100.00
1726;BME280;41776;48.260;8.928;2023-05-29T02:36:00;52085.94;;;-145.69;100.00
1726;BME280;41776;48.260;8.928;2023-05-29T02:38:28;52123.56;;;-145.69;100.00
1726;BME280;41776;48.260;8.928;2023-05-29T02:40:55;52095.84;;;-145.69;100.00
1726;BME280;41776;48.260;8.928;2023-05-29T02:43:22;52076.03;;;-145.69;100.00
1726;BME280;41776;48.260;8.928;2023-05-29T02:45:48;52068.13;;;-145.69;100.00
1726;BME280;41776;48.260;8.928;2023-05-29T02:48:15;52082.00;;;-145.69;100.00
1726;BME280;41776;48.260;8.928;2023-05-29T02:50:41;52117.63;;;-145.69;100.00
1726;BME280;41776;48.260;8.928;2023-05-29T02:53:09;52099.81;;;-145.69;100.00
1726;BME280;41776;48.260;8.928;2023-05-29T02:55:35;52099.81;;;-145.69;100.00
1726;BME280;41776;48.260;8.928;2023-05-29T02:58:03;52107.72;;;-145.69;100.00
1726;BME280;41776;48.260;8.928;2023-05-29T03:00:32;52107.72;;;-145.69;100.00
1726;BME280;41776;48.260;8.928;2023-05-29T03:02:59;52087.94;;;-145.69;100.00
1726;BME280;41776;48.260;8.928;2023-05-29T03:05:26;52127.53;;;-145.69;100.00
1726;BME280;41776;48.260;8.928;2023-05-29T03:07:52;52115.66;;;-145.69;100.00
1726;BME280;41776;48.260;8.928;2023-05-29T03:10:20;52109.72;;;-145.69;100.00
1726;BME280;41776;48.260;8.928;2023-05-29T03:12:47;52093.88;;;-145.69;100.00
1726;BME280;41776;48.260;8.928;2023-05-29T03:15:14;52072.09;;;-145.69;100.00
1726;BME280;41776;48.260;8.928;2023-05-29T03:17:41;52093.88;;;-145.69;100.00
1726;BME280;41776;48.260;8.928;2023-05-29T03:20:08;52105.75;;;-145.69;100.00
1726;BME280;41776;48.260;8.928;2023-05-29T03:22:35;52119.63;;;-145.69;100.00
1726;BME280;41776;48.260;8.928;2023-05-29T03:25:02;52095.84;;;-145.69;100.00
1726;BME280;41776;48.260;8.928;2023-05-29T03:27:36;52091.88;;;-145.69;100.00
1726;BME280;41776;48.260;8.928;2023-05-29T03:30:04;52089.91;;;-145.69;100.00
1726;BME280;41776;48.260;8.928;2023-05-29T03:32:31;52064.16;;;-145.69;100.00
1726;BME280;41776;48.260;8.928;2023-05-29T03:34:57;52123.56;;;-145.69;100.00
1726;BME280;41776;48.260;8.928;2023-05-29T03:37:28;52097.84;;;-145.69;100.00
1726;BME280;41776;48.260;8.928;2023-05-29T03:39:55;52093.88;;;-145.69;100.00
1726;BME280;41776;48.260;8.928;2023-05-29T03:42:22;52091.88;;;-145.69;100.00
1726;BME280;41776;48.260;8.928;2023-05-29T03:44:50;52123.56;;;-145.69;100.00
1726;BME280;41776;48.260;8.928;2023-05-29T03:47:16;52129.50;;;-145.69;100.00
1726;BME280;41776;48.260;8.928;2023-05-29T03:49:45;52103.78;;;-145.69;100.00
1726;BME280;41776;48.260;8.928;2023-05-29T03:52:11;52111.69;;;-145.69;100.00
1726;BME280;41776;48.260;8.928;2023-05-29T03:54:38;52121.59;;;-145.69;100.00
1726;BME280;41776;48.260;8.928;2023-05-29T03:57:05;52091.88;;;-145.69;100.00
1726;BME280;41776;48.260;8.928;2023-05-29T03:59:32;52080.00;;;-145.69;100.00
1726;BME280;41776;48.260;8.928;2023-05-29T04:02:02;52101.78;;;-145.69;100.00
1726;BME280;41776;48.260;8.928;2023-05-29T04:04:29;52111.69;;;-145.69;100.00
1726;BME280;41776;48.260;8.928;2023-05-29T04:06:55;52113.66;;;-145.69;100.00
1726;BME280;41776;48.260;8.928;2023-05-29T04:09:22;52064.16;;;-145.69;100.00
1726;BME280;41776;48.260;8.928;2023-05-29T04:11:48;52099.81;;;-145.69;100.00
1726;BME280;41776;48.260;8.928;2023-05-29T04:14:19;52070.09;;;-145.69;100.00
1726;BME280;41776;48.260;8.928;2023-05-29T04:16:45;52099.81;;;-145.69;100.00
1726;BME280;41776;48.260;8.928;2023-05-29T04:19:16;52076.03;;;-145.69;100.00
1726;BME280;41776;48.260;8.928;2023-05-29T04:21:45;52085.94;;;-145.69;100.00
1726;BME280;41776;48.260;8.928;2023-05-29T04:24:13;52111.69;;;-145.69;100.00
1726;BME280;41776;48.260;8.928;2023-05-29T04:26:39;52044.38;;;-145.69;100.00
1726;BME280;41776;48.260;8.928;2023-05-29T04:29:06;52062.19;;;-145.69;100.00
1726;BME280;41776;48.260;8.928;2023-05-29T04:31:33;52078.03;;;-145.69;100.00
1726;BME280;41776;48.260;8.928;2023-05-29T04:34:04;52115.66;;;-145.69;100.00
1726;BME280;41776;48.260;8.928;2023-05-29T04:36:32;52058.22;;;-145.69;100.00
1726;BME280;41776;48.260;8.928;2023-05-29T04:38:58;52099.81;;;-145.69;100.00
1726;BME280;41776;48.260;8.928;2023-05-29T04:41:25;52107.72;;;-145.69;100.00
1726;BME280;41776;48.260;8.928;2023-05-29T04:43:54;52133.47;;;-145.69;100.00
1726;BME280;41776;48.260;8.928;2023-05-29T04:46:21;52083.97;;;-145.69;100.00
1726;BME280;41776;48.260;8.928;2023-05-29T04:48:51;52087.94;;;-145.69;100.00
1726;BME280;41776;48.260;8.928;2023-05-29T04:51:19;52076.03;;;-145.69;100.00
1726;BME280;41776;48.260;8.928;2023-05-29T04:53:48;52076.03;;;-145.69;100.00
1726;BME280;41776;48.260;8.928;2023-05-29T04:56:15;52091.88;;;-145.69;100.00
1726;BME280;41776;48.260;8.928;2023-05-29T04:58:41;52089.91;;;-145.69;100.00
1726;BME280;41776;48.260;8.928;2023-05-29T05:01:08;52127.53;;;-145.69;100.00
1726;BME280;41776;48.260;8.928;2023-05-29T05:03:39;52056.25;;;-145.69;100.00
1726;BME280;41776;48.260;8.928;2023-05-29T05:06:06;52091.88;;;-145.69;100.00
1726;BME280;41776;48.260;8.928;2023-05-29T05:08:35;52083.97;;;-145.69;100.00
1726;BME280;41776;48.260;8.928;2023-05-29T05:11:06;52083.97;;;-145.69;100.00
1726;BME280;41776;48.260;8.928;2023-05-29T05:13:32;52052.28;;;-145.69;100.00
1726;BME280;41776;48.260;8.928;2023-05-29T05:15:59;52083.97;;;-145.69;100.00
1726;BME280;41776;48.260;8.928;2023-05-29T05:18:26;52062.19;;;-145.69;100.00
1726;BME280;41776;48.260;8.928;2023-05-29T05:21:00;52080.00;;;-145.69;100.00
1726;BME280;41776;48.260;8.928;2023-05-29T05:23:28;52068.13;;;-145.69;100.00
1726;BME280;41776;48.260;8.928;2023-05-29T05:25:56;52099.81;;;-145.69;100.00
1726;BME280;41776;48.260;8.928;2023-05-29T05:28:24;52072.09;;;-145.69;100.00
1726;BME280;41776;48.260;8.928;2023-05-29T05:30:54;52052.28;;;-145.69;100.00
1726;BME280;41776;48.260;8.928;2023-05-29T05:33:20;52030.50;;;-145.69;100.00
1726;BME280;41776;48.260;8.928;2023-05-29T05:35:47;52036.44;;;-145.69;100.00
1726;BME280;41776;48.260;8.928;2023-05-29T05:38:13;52040.41;;;-145.69;100.00
1726;BME280;41776;48.260;8.928;2023-05-29T05:40:40;52038.44;;;-145.69;93.41
1726;BME280;41776;48.260;8.928;2023-05-29T05:43:13;51984.97;;;-145.69;84.92
1726;BME280;41776;48.260;8.928;2023-05-29T05:45:40;52046.34;;;-145.69;80.14
1726;BME280;41776;48.260;8.928;2023-05-29T05:48:08;51994.88;;;-145.69;72.27
1726;BME280;41776;48.260;8.928;2023-05-29T05:50:34;52004.75;;;-145.69;71.81
1726;BME280;41776;48.260;8.928;2023-05-29T05:53:01;52014.66;;;-145.69;75.47
1726;BME280;41776;48.260;8.928;2023-05-29T05:55:30;52004.75;;;-145.69;76.53
1726;BME280;41776;48.260;8.928;2023-05-29T05:57:57;52044.38;;;-145.69;76.64
1726;BME280;41776;48.260;8.928;2023-05-29T06:00:24;52020.59;;;-145.69;77.40
1726;BME280;41776;48.260;8.928;2023-05-29T06:02:52;51982.97;;;-145.69;81.06
1726;BME280;41776;48.260;8.928;2023-05-29T06:05:19;52022.59;;;-145.69;79.93
1726;BME280;41776;48.260;8.928;2023-05-29T06:07:47;52034.47;;;-145.69;80.68
1726;BME280;41776;48.260;8.928;2023-05-29T06:10:14;52016.66;;;-145.69;76.81
1726;BME280;41776;48.260;8.928;2023-05-29T06:12:40;52056.25;;;-145.69;79.81
1726;BME280;41776;48.260;8.928;2023-05-29T06:15:08;52082.00;;;-145.69;76.67
1726;BME280;41776;48.260;8.928;2023-05-29T06:17:43;52024.56;;;-145.69;75.42
1726;BME280;41776;48.260;8.928;2023-05-29T06:20:11;52038.44;;;-145.69;76.17
1726;BME280;41776;48.260;8.928;2023-05-29T06:22:39;52002.78;;;-145.69;72.93
1726;BME280;41776;48.260;8.928;2023-05-29T06:25:06;52020.59;;;-145.69;71.85
1726;BME280;41776;48.260;8.928;2023-05-29T06:27:37;52032.47;;;-145.69;74.02
1726;BME280;41776;48.260;8.928;2023-05-29T06:30:04;52024.56;;;-145.69;70.90
1726;BME280;41776;48.260;8.928;2023-05-29T06:32:35;52020.59;;;-145.69;70.31
1726;BME280;41776;48.260;8.928;2023-05-29T06:35:02;52002.78;;;-145.69;75.75
1726;BME280;41776;48.260;8.928;2023-05-29T06:37:30;52056.25;;;-145.69;74.06
1726;BME280;41776;48.260;8.928;2023-05-29T06:39:59;52004.75;;;-145.69;77.39
1726;BME280;41776;48.260;8.928;2023-05-29T06:42:25;52000.81;;;-145.69;75.04
1726;BME280;41776;48.260;8.928;2023-05-29T06:44:52;52006.75;;;-145.69;77.48
1726;BME280;41776;48.260;8.928;2023-05-29T06:47:19;52032.47;;;-145.69;77.39
1726;BME280;41776;48.260;8.928;2023-05-29T06:49:47;51998.81;;;-145.69;82.19
1726;BME280;41776;48.260;8.928;2023-05-29T06:52:14;52040.41;;;-145.69;74.98
1726;BME280;41776;48.260;8.928;2023-05-29T06:54:41;52008.72;;;-145.69;76.06
1726;BME280;41776;48.260;8.928;2023-05-29T06:57:22;52028.53;;;-145.69;76.19
1726;BME280;41776;48.260;8.928;2023-05-29T06:59:48;51996.84;;;-145.69;78.21
1726;BME280;41776;48.260;8.928;2023-05-29T07:02:15;52016.66;;;-145.69;80.78
1726;BME280;41776;48.260;8.928;2023-05-29T07:04:42;52004.75;;;-145.69;76.45
1726;BME280;41776;48.260;8.928;2023-05-29T07:07:10;52024.56;;;-145.69;76.58
1726;BME280;41776;48.260;8.928;2023-05-29T07:09:37;52006.75;;;-145.69;78.27
1726;BME280;41776;48.260;8.928;2023-05-29T07:12:06;52038.44;;;-145.69;82.68
1726;BME280;41776;48.260;8.928;2023-05-29T07:14:32;52004.75;;;-145.69;78.72
1726;BME280;41776;48.260;8.928;2023-05-29T07:16:59;51965.16;;;-145.69;78.43
1726;BME280;41776;48.260;8.928;2023-05-29T07:19:25;51984.97;;;-145.69;81.23
1726;BME280;41776;48.260;8.928;2023-05-29T07:21:53;52032.47;;;-145.69;85.39
1726;BME280;41776;48.260;8.928;2023-05-29T07:24:19;51981.00;;;-145.69;80.08
1726;BME280;41776;48.260;8.928;2023-05-29T07:26:46;52020.59;;;-145.69;82.55
1726;BME280;41776;48.260;8.928;2023-05-29T07:29:14;51969.13;;;-145.69;82.35
1726;BME280;41776;48.260;8.928;2023-05-29T07:31:43;51994.88;;;-145.69;83.94
1726;BME280;41776;48.260;8.928;2023-05-29T07:34:18;52034.47;;;-145.69;83.63
1726;BME280;41776;48.260;8.928;2023-05-29T07:37:00;51996.84;;;-145.69;79.98
1726;BME280;41776;48.260;8.928;2023-05-29T07:39:29;51984.97;;;-145.69;82.65
1726;BME280;41776;48.260;8.928;2023-05-29T07:41:56;52004.75;;;-145.69;87.97
1726;BME280;41776;48.260;8.928;2023-05-29T07:44:24;51982.97;;;-145.69;80.42
1726;BME280;41776;48.260;8.928;2023-05-29T07:46:56;51979.03;;;-145.69;78.95
1726;BME280;41776;48.260;8.928;2023-05-29T07:49:23;51961.19;;;-145.69;85.20
1726;BME280;41776;48.260;8.928;2023-05-29T07:51:50;51984.97;;;-145.69;80.67
1726;BME280;41776;48.260;8.928;2023-05-29T07:54:17;52028.53;;;-145.69;76.03
1726;BME280;41776;48.260;8.928;2023-05-29T07:56:47;51953.28;;;-145.69;78.72
1726;BME280;41776;48.260;8.928;2023-05-29T07:59:16;51959.22;;;-145.69;74.73
1726;BME280;41776;48.260;8.928;2023-05-29T08:01:44;51969.13;;;-145.69;79.90
1726;BME280;41776;48.260;8.928;2023-05-29T08:04:13;51996.84;;;-145.69;78.01
1726;BME280;41776;48.260;8.928;2023-05-29T08:06:40;51998.81;;;-145.69;78.43
1726;BME280;41776;48.260;8.928;2023-05-29T08:09:10;51988.91;;;-145.69;78.26
1726;BME280;41776;48.260;8.928;2023-05-29T08:11:39;51965.16;;;-145.69;78.45
1726;BME280;41776;48.260;8.928;2023-05-29T08:14:07;51973.06;;;-145.69;72.07
1726;BME280;41776;48.260;8.928;2023-05-29T08:16:33;51965.16;;;-145.69;75.67
1726;BME280;41776;48.260;8.928;2023-05-29T08:19:01;51949.31;;;-145.69;67.95
1726;BME280;41776;48.260;8.928;2023-05-29T08:21:29;51971.09;;;-145.69;66.56
1726;BME280;41776;48.260;8.928;2023-05-29T08:23:55;51953.28;;;-145.69;65.97
1726;BME280;41776;48.260;8.928;2023-05-29T08:26:21;51941.41;;;-145.69;66.38
1726;BME280;41776;48.260;8.928;2023-05-29T08:28:50;51957.25;;;-145.69;63.42
1726;BME280;41776;48.260;8.928;2023-05-29T08:31:16;51981.00;;;-145.69;63.97
1726;BME280;41776;48.260;8.928;2023-05-29T08:33:43;51969.13;;;-145.69;59.49
1726;BME280;41776;48.260;8.928;2023-05-29T08:36:11;51973.06;;;-145.69;60.13
1726;BME280;41776;48.260;8.928;2023-05-29T08:38:38;51981.00;;;-145.69;53.42
1726;BME280;41776;48.260;8.928;2023-05-29T08:41:05;51988.91;;;-145.69;57.52
1726;BME280;41776;48.260;8.928;2023-05-29T08:43:34;51945.34;;;-145.69;62.67
1726;BME280;41776;48.260;8.928;2023-05-29T08:46:02;51947.34;;;-145.69;55.17
1726;BME280;41776;48.260;8.928;2023-05-29T08:48:30;51955.25;;;-145.69;51.27
1726;BME280;41776;48.260;8.928;2023-05-29T08:50:58;51977.03;;;-145.69;50.13
1726;BME280;41776;48.260;8.928;2023-05-29T08:53:26;51963.19;;;-145.69;58.58
1726;BME280;41776;48.260;8.928;2023-05-29T08:55:53;51953.28;;;-145.69;51.58
1726;BME280;41776;48.260;8.928;2023-05-29T08:58:21;51917.63;;;-145.69;50.24
1726;BME280;41776;48.260;8.928;2023-05-29T09:00:48;51933.47;;;-145.69;50.92
1726;BME280;41776;48.260;8.928;2023-05-29T09:03:16;51943.38;;;-145.69;47.35
1726;BME280;41776;48.260;8.928;2023-05-29T09:05:45;51945.34;;;-145.69;50.95
1726;BME280;41776;48.260;8.928;2023-05-29T09:08:12;51965.16;;;-145.69;48.44
1726;BME280;41776;48.260;8.928;2023-05-29T09:10:42;51933.47;;;-145.69;50.11
1726;BME280;41776;48.260;8.928;2023-05-29T09:13:10;51927.53;;;-145.69;49.25
1726;BME280;41776;48.260;8.928;2023-05-29T09:15:39;51919.63;;;-145.69;48.44
1726;BME280;41776;48.260;8.928;2023-05-29T09:18:08;51929.50;;;-145.69;51.44
1726;BME280;41776;48.260;8.928;2023-05-29T09:20:35;51961.19;;;-145.69;52.86
1726;BME280;41776;48.260;8.928;2023-05-29T09:23:04;51965.16;;;-145.69;50.72
1726;BME280;41776;48.260;8.928;2023-05-29T09:25:32;51945.34;;;-145.69;50.57
1726;BME280;41776;48.260;8.928;2023-05-29T09:28:01;51937.44;;;-145.69;51.97
1726;BME280;41776;48.260;8.928;2023-05-29T09:30:40;51955.25;;;-145.69;46.65
1726;BME280;41776;48.260;8.928;2023-05-29T09:33:13;51901.78;;;-145.69;48.85
1726;BME280;41776;48.260;8.928;2023-05-29T09:35:41;51945.34;;;-145.69;53.78
1726;BME280;41776;48.260;8.928;2023-05-29T09:38:09;51915.66;;;-145.69;48.21
1726;BME280;41776;48.260;8.928;2023-05-29T09:40:36;51937.44;;;-145.69;51.00
1726;BME280;41776;48.260;8.928;2023-05-29T09:43:09;51913.69;;;-145.69;50.48
1726;BME280;41776;48.260;8.928;2023-05-29T09:45:37;51933.47;;;-145.69;51.93
1726;BME280;41776;48.260;8.928;2023-05-29T09:48:05;51917.63;;;-145.69;52.16
1726;BME280;41776;48.260;8.928;2023-05-29T09:50:31;51921.59;;;-145.69;51.54
1726;BME280;41776;48.260;8.928;2023-05-29T09:52:59;51937.44;;;-145.69;42.08
1726;BME280;41776;48.260;8.928;2023-05-29T09:55:27;51903.78;;;-145.69;39.98
1726;BME280;41776;48.260;8.928;2023-05-29T09:57:54;51935.47;;;-145.69;41.08
1726;BME280;41776;48.260;8.928;2023-05-29T10:00:22;51917.63;;;-145.69;37.88
1726;BME280;41776;48.260;8.928;2023-05-29T10:02:49;51919.63;;;-145.69;37.47
1726;BME280;41776;48.260;8.928;2023-05-29T10:05:16;51897.84;;;-145.69;35.33
1726;BME280;41776;48.260;8.928;2023-05-29T10:07:44;51882.00;;;-145.69;35.88
1726;BME280;41776;48.260;8.928;2023-05-29T10:10:13;51909.72;;;-145.69;36.19
1726;BME280;41776;48.260;8.928;2023-05-29T10:12:44;51899.81;;;-145.69;36.08
1726;BME280;41776;48.260;8.928;2023-05-29T10:15:14;51897.84;;;-145.69;35.67
1726;BME280;41776;48.260;8.928;2023-05-29T10:17:49;51927.53;;;-145.69;36.76
1726;BME280;41776;48.260;8.928;2023-05-29T10:20:17;51887.94;;;-145.69;41.52
1726;BME280;41776;48.260;8.928;2023-05-29T10:22:48;51874.06;;;-145.69;36.65
1726;BME280;41776;48.260;8.928;2023-05-29T10:25:17;51870.13;;;-145.69;39.86
1726;BME280;41776;48.260;8.928;2023-05-29T10:27:46;51901.78;;;-145.69;38.45
1726;BME280;41776;48.260;8.928;2023-05-29T10:30:23;51889.91;;;-145.69;36.82
1726;BME280;41776;48.260;8.928;2023-05-29T10:35:46;51905.75;;;-145.69;38.91
1726;BME280;41776;48.260;8.928;2023-05-29T10:38:15;51897.84;;;-145.69;36.80
1726;BME280;41776;48.260;8.928;2023-05-29T10:40:44;51897.84;;;-145.69;36.84
1726;BME280;41776;48.260;8.928;2023-05-29T10:43:32;51917.63;;;-145.69;37.68
1726;BME280;41776;48.260;8.928;2023-05-29T10:45:59;51866.16;;;-145.69;38.01
1726;BME280;41776;48.260;8.928;2023-05-29T10:48:49;51901.78;;;-145.69;37.28
1726;BME280;41776;48.260;8.928;2023-05-29T10:51:26;51895.84;;;-145.69;37.04
1726;BME280;41776;48.260;8.928;2023-05-29T10:53:53;51874.06;;;-145.69;37.55
1726;BME280;41776;48.260;8.928;2023-05-29T10:56:22;51893.88;;;-145.69;36.66
1726;BME280;41776;48.260;8.928;2023-05-29T10:58:54;51909.72;;;-145.69;37.43
1726;BME280;41776;48.260;8.928;2023-05-29T11:01:21;51880.00;;;-145.69;37.83
1726;BME280;41776;48.260;8.928;2023-05-29T11:03:50;51897.84;;;-145.69;35.34
1726;BME280;41776;48.260;8.928;2023-05-29T11:06:20;51882.00;;;-145.69;38.04
1726;BME280;41776;48.260;8.928;2023-05-29T11:08:54;51874.06;;;-145.69;37.06
1726;BME280;41776;48.260;8.928;2023-05-29T11:11:31;51870.13;;;-145.69;37.50
1726;BME280;41776;48.260;8.928;2023-05-29T11:14:01;51876.06;;;-145.69;36.37
1726;BME280;41776;48.260;8.928;2023-05-29T11:16:36;51883.97;;;-145.69;37.71
1726;BME280;41776;48.260;8.928;2023-05-29T11:19:06;51866.16;;;-145.69;35.93
1726;BME280;41776;48.260;8.928;2023-05-29T11:21:47;51885.94;;;-145.69;35.59
1726;BME280;41776;48.260;8.928;2023-05-29T11:24:21;51889.91;;;-145.69;37.07
1726;BME280;41776;48.260;8.928;2023-05-29T11:26:50;51883.97;;;-145.69;36.63
1726;BME280;41776;48.260;8.928;2023-05-29T11:29:21;51878.03;;;-145.69;36.34
1726;BME280;41776;48.260;8.928;2023-05-29T11:31:49;51834.47;;;-145.69;35.87
1726;BME280;41776;48.260;8.928;2023-05-29T11:34:21;51882.00;;;-145.69;36.45
1726;BME280;41776;48.260;8.928;2023-05-29T11:36:50;51887.94;;;-145.69;37.84
1726;BME280;41776;48.260;8.928;2023-05-29T11:39:17;51870.13;;;-145.69;36.27
1726;BME280;41776;48.260;8.928;2023-05-29T11:41:44;51862.19;;;-145.69;37.49
1726;BME280;41776;48.260;8.928;2023-05-29T11:44:13;51858.22;;;-145.69;35.99
1726;BME280;41776;48.260;8.928;2023-05-29T11:46:40;51838.44;;;-145.69;37.52
1726;BME280;41776;48.260;8.928;2023-05-29T11:49:06;51846.34;;;-145.69;37.09
1726;BME280;41776;48.260;8.928;2023-05-29T11:51:34;51854.28;;;-145.69;34.62
1726;BME280;41776;48.260;8.928;2023-05-29T11:54:02;51852.28;;;-145.69;35.50
1726;BME280;41776;48.260;8.928;2023-05-29T11:56:30;51838.44;;;-145.69;34.90
1726;BME280;41776;48.260;8.928;2023-05-29T11:58:58;51858.22;;;-145.69;34.57
1726;BME280;41776;48.260;8.928;2023-05-29T12:01:26;51885.94;;;-145.69;36.62
1726;BME280;41776;48.260;8.928;2023-05-29T12:03:53;51870.13;;;-145.69;37.40
1726;BME280;41776;48.260;8.928;2023-05-29T12:06:34;51854.28;;;-145.69;38.26
1726;BME280;41776;48.260;8.928;2023-05-29T12:09:02;51862.19;;;-145.69;35.75
1726;BME280;41776;48.260;8.928;2023-05-29T12:11:30;51826.56;;;-145.69;38.93
1726;BME280;41776;48.260;8.928;2023-05-29T12:13:59;51836.44;;;-145.69;36.04
1726;BME280;41776;48.260;8.928;2023-05-29T12:16:27;51806.75;;;-145.69;34.53
1726;BME280;41776;48.260;8.928;2023-05-29T12:18:54;51818.63;;;-145.69;34.61
1726;BME280;41776;48.260;8.928;2023-05-29T12:21:21;51850.31;;;-145.69;35.90
1726;BME280;41776;48.260;8.928;2023-05-29T12:23:52;51832.50;;;-145.69;34.77
1726;BME280;41776;48.260;8.928;2023-05-29T12:26:21;51812.69;;;-145.69;32.54
1726;BME280;41776;48.260;8.928;2023-05-29T12:28:49;51846.34;;;-145.69;32.85
1726;BME280;41776;48.260;8.928;2023-05-29T12:31:26;51810.72;;;-145.69;33.47
1726;BME280;41776;48.260;8.928;2023-05-29T12:33:53;51802.78;;;-145.69;32.11
1726;BME280;41776;48.260;8.928;2023-05-29T12:36:25;51826.56;;;-145.69;34.33
1726;BME280;41776;48.260;8.928;2023-05-29T12:38:53;51830.50;;;-145.69;32.86
1726;BME280;41776;48.260;8.928;2023-05-29T12:41:23;51794.88;;;-145.69;33.05
1726;BME280;41776;48.260;8.928;2023-05-29T12:43:52;51818.63;;;-145.69;32.56
1726;BME280;41776;48.260;8.928;2023-05-29T12:46:20;51812.69;;;-145.69;33.69
1726;BME280;41776;48.260;8.928;2023-05-29T12:48:46;51775.06;;;-145.69;34.27
1726;BME280;41776;48.260;8.928;2023-05-29T12:51:14;51788.94;;;-145.69;36.62
1726;BME280;41776;48.260;8.928;2023-05-29T12:53:41;51784.97;;;-145.69;36.14
1726;BME280;41776;48.260;8.928;2023-05-29T12:56:09;51830.50;;;-145.69;35.39